Time;durP1;ratioP1;P1;durP2;ratioP2;P2;SDS_P1;SDS_P2;PMS_P1;PMS_P2;Temp;Humidity;BMP_temperature;BMP_pressure;BME280_temperature;BME280_humidity;BME280_pressure;Samples;Min_cycle;Max_cycle;Signal;HPM_P1;HPM_P2
2023/05/11 00:06:01;;;;;;;11.70;6.10;;;;;;;9.39;49.38;98790.54;438186;1245;98800;-42
2023/05/11 00:16:05;;;;;;;12.30;5.90;;;;;;;9.22;49.57;98784.64;438223;1250;107938;-42
2023/05/11 00:26:09;;;;;;;13.40;6.30;;;;;;;9.10;49.79;98781.91;438131;1248;98848;-41
2023/05/11 00:36:13;;;;;;;14.20;6.70;;;;;;;8.99;50.20;98781.92;438104;1245;110760;-42
2023/05/11 00:46:17;;;;;;;17.50;8.00;;;;;;;8.95;50.58;98786.52;438111;1244;107658;-43
2023/05/11 00:56:21;;;;;;;17.50;8.70;;;;;;;8.89;50.88;98790.31;438093;1248;99223;-43
2023/05/11 01:06:31;;;;;;;17.30;7.90;;;;;;;8.82;51.30;98784.48;438091;1249;98813;-43
2023/05/11 01:16:33;;;;;;;;;;;;;;;8.68;51.52;98786.85;438928;1245;107748;-43
2023/05/11 01:26:59;;;;;;;16.90;8.00;;;;;;;8.63;51.81;98787.45;438097;1250;99264;-42
2023/05/11 01:37:09;;;;;;;12.30;6.80;;;;;;;8.51;52.04;98786.89;438116;1244;111386;-43
2023/05/11 01:47:15;;;;;;;14.40;7.60;;;;;;;8.47;52.38;98780.02;437907;1249;109372;-43
2023/05/11 01:57:20;;;;;;;10.90;5.90;;;;;;;8.48;52.63;98779.16;438155;1245;99201;-43
2023/05/11 02:17:34;;;;;;;14.50;6.30;;;;;;;8.24;53.13;98784.73;438103;1250;107650;-42
2023/05/11 02:27:38;;;;;;;9.30;6.00;;;;;;;8.14;53.46;98783.85;438097;1250;98825;-43
2023/05/11 02:37:45;;;;;;;13.20;6.40;;;;;;;7.94;53.84;98788.84;438102;1250;98018;-44
2023/05/11 02:47:49;;;;;;;14.10;6.20;;;;;;;7.85;54.26;98789.45;438268;1244;107496;-42
2023/05/11 02:57:54;;;;;;;12.90;6.00;;;;;;;7.87;54.55;98793.25;438039;1250;99262;-43
2023/05/11 03:08:00;;;;;;;14.00;6.50;;;;;;;7.83;54.68;98792.17;438103;1244;110661;-43
2023/05/11 03:18:05;;;;;;;12.60;7.30;;;;;;;7.88;54.97;98791.98;437965;1244;107723;-45
2023/05/11 03:28:10;;;;;;;10.80;6.60;;;;;;;7.84;54.98;98797.92;438070;1244;97994;-43
2023/05/11 03:38:16;;;;;;;10.70;6.50;;;;;;;8.21;55.01;98800.25;438074;1244;111375;-42
2023/05/11 03:48:21;;;;;;;9.20;6.10;;;;;;;8.86;54.70;98802.88;437856;1249;368437;-41
2023/05/11 03:58:25;;;;;;;18.80;8.60;;;;;;;8.57;54.65;98805.21;438118;1245;99196;-42
2023/05/11 04:08:29;;;;;;;11.00;6.00;;;;;;;9.04;54.81;98799.10;438177;1250;110687;-47
2023/05/11 04:18:33;;;;;;;14.50;6.80;;;;;;;9.21;54.59;98801.61;437998;1250;98813;-42
2023/05/11 04:28:37;;;;;;;12.70;7.20;;;;;;;9.09;54.58;98802.94;437961;1245;98356;-41
2023/05/11 04:38:41;;;;;;;14.30;7.50;;;;;;;9.96;54.39;98802.03;438103;1244;112932;-42
2023/05/11 04:48:45;;;;;;;16.80;7.70;;;;;;;10.01;54.29;98805.27;437901;1244;98408;-43
2023/05/11 04:58:48;;;;;;;17.50;7.50;;;;;;;11.34;54.34;98803.40;437997;1244;99666;-44
2023/05/11 05:08:56;;;;;;;13.70;7.00;;;;;;;13.30;52.79;98808.16;437994;1250;111925;-43
2023/05/11 05:19:00;;;;;;;14.40;7.30;;;;;;;13.99;51.53;98806.95;437933;1250;108178;-42
2023/05/11 05:29:03;;;;;;;16.80;7.40;;;;;;;14.17;50.69;98811.27;438072;1244;99195;-42
2023/05/11 05:39:11;;;;;;;18.50;7.20;;;;;;;14.67;49.78;98810.55;438192;1251;107939;-42
2023/05/11 05:49:15;;;;;;;19.20;9.40;;;;;;;14.04;48.75;98810.73;437408;1247;99212;-43
2023/05/11 06:09:23;;;;;;;26.40;10.60;;;;;;;14.26;48.69;98817.97;437384;1250;107963;-42
2023/05/11 06:19:28;;;;;;;18.80;8.00;;;;;;;14.55;48.27;98820.75;437551;1248;97973;-43
2023/05/11 06:29:32;;;;;;;12.90;7.60;;;;;;;15.46;47.94;98820.46;437410;1248;106282;-43
2023/05/11 06:39:37;;;;;;;20.80;7.60;;;;;;;16.06;47.51;98826.74;437396;1250;99336;-42
2023/05/11 06:59:49;;;;;;;8.40;5.30;;;;;;;16.47;46.43;98829.19;437473;1248;107692;-42
2023/05/11 07:09:53;;;;;;;10.90;6.60;;;;;;;16.39;46.13;98822.55;437502;1248;98094;-42
2023/05/11 07:20:02;;;;;;;15.10;6.10;;;;;;;16.41;46.06;98827.14;437511;1250;107896;-43
2023/05/11 07:30:07;;;;;;;;;;;;;;;16.66;45.07;98829.55;437398;1250;99209;-42
2023/05/11 07:40:11;;;;;;;9.00;5.30;;;;;;;16.87;45.66;98829.84;437428;1247;110270;-42
2023/05/11 07:50:15;;;;;;;14.80;5.50;;;;;;;17.08;44.96;98835.52;437488;1247;107694;-42
2023/05/11 08:00:24;;;;;;;8.20;4.90;;;;;;;17.02;45.11;98832.84;437399;1247;98803;-42
2023/05/11 08:10:28;;;;;;;15.80;5.80;;;;;;;17.27;45.07;98838.02;437584;1250;108586;-42
2023/05/11 08:20:32;;;;;;;5.80;4.70;;;;;;;17.50;44.88;98836.61;437407;1250;99854;-41
2023/05/11 08:30:38;;;;;;;10.70;5.00;;;;;;;17.31;44.22;98828.19;437350;1250;111314;-42
2023/05/11 08:40:46;;;;;;;6.90;4.80;;;;;;;17.43;44.37;98826.56;437442;1250;107802;-45
2023/05/11 08:50:50;;;;;;;;;;;;;;;17.58;44.22;98821.41;437530;1250;98813;-43
2023/05/11 09:00:55;;;;;;;8.50;4.40;;;;;;;17.44;43.77;98813.90;437630;1247;106897;-43
2023/05/11 09:10:59;;;;;;;8.20;4.70;;;;;;;17.60;44.04;98811.52;437454;1250;99327;-44
2023/05/11 09:21:02;;;;;;;10.90;4.80;;;;;;;18.05;43.73;98812.38;437343;1247;111602;-42
2023/05/11 09:31:06;;;;;;;7.10;4.80;;;;;;;18.35;43.19;98806.46;437453;1250;107993;-45
2023/05/11 09:41:10;;;;;;;5.00;3.60;;;;;;;18.62;42.68;98802.02;437401;1248;98790;-42
2023/05/11 10:01:16;;;;;;;9.70;4.10;;;;;;;19.02;41.58;98787.52;437513;1251;98034;-43
2023/05/11 10:11:21;;;;;;;9.60;3.50;;;;;;;19.46;41.35;98779.55;437576;1251;110723;-43
2023/05/11 10:21:28;;;;;;;3.40;3.00;;;;;;;19.74;40.53;98770.50;437561;1251;106768;-43
2023/05/11 10:31:32;;;;;;;5.90;3.20;;;;;;;19.50;39.01;98768.27;437640;1250;99261;-43
2023/05/11 10:52:05;;;;;;;3.20;2.90;;;;;;;19.35;37.66;98757.84;437409;1254;100401;-44
2023/05/11 11:02:09;;;;;;;3.00;2.30;;;;;;;19.35;36.61;98755.96;437426;1250;112111;-44
2023/05/11 11:12:13;;;;;;;4.00;2.30;;;;;;;19.70;36.81;98750.19;437349;1248;106877;-43
2023/05/11 11:22:45;;;;;;;5.10;2.30;;;;;;;19.45;35.69;98746.10;437544;1247;99502;-44
2023/05/11 11:43:08;;;;;;;4.10;2.00;;;;;;;19.30;34.21;98745.77;437393;1260;101511;-42
2023/05/11 11:53:12;;;;;;;2.90;2.60;;;;;;;19.50;34.04;98745.46;437398;1250;111002;-44
2023/05/11 12:03:22;;;;;;;4.30;2.70;;;;;;;19.55;33.54;98747.66;437445;1251;107920;-50
2023/05/11 12:13:26;;;;;;;2.70;2.00;;;;;;;19.93;33.70;98744.92;437474;1247;98004;-43
2023/05/11 12:23:31;;;;;;;2.90;2.30;;;;;;;20.21;32.87;98744.08;437376;1260;108141;-42
2023/05/11 12:33:44;;;;;;;4.20;2.00;;;;;;;20.19;31.86;98740.08;437496;1260;97978;-43
2023/05/11 12:43:48;;;;;;;3.50;1.90;;;;;;;20.13;30.78;98733.13;437328;1248;111355;-42
2023/05/11 12:53:52;;;;;;;3.40;1.70;;;;;;;20.22;30.29;98728.21;437502;1251;107664;-43
2023/05/11 13:03:56;;;;;;;6.20;2.10;;;;;;;20.20;30.34;98719.45;437414;1248;99214;-43
2023/05/11 13:14:15;;;;;;;5.50;2.10;;;;;;;20.42;30.46;98718.89;437446;1250;108609;-43
2023/05/11 13:24:43;;;;;;;6.70;2.30;;;;;;;20.40;30.42;98706.33;437584;1247;99359;-45
2023/05/11 13:34:46;;;;;;;;;;;;;;;20.26;29.66;98707.66;437503;1248;111727;-43
2023/05/11 13:44:50;;;;;;;2.30;1.70;;;;;;;20.24;30.35;98696.95;437400;1247;108010;-41
2023/05/11 13:54:53;;;;;;;3.30;1.50;;;;;;;20.24;29.81;98693.55;437466;1246;99192;-44
2023/05/11 14:05:00;;;;;;;3.50;1.70;;;;;;;20.19;29.55;98691.75;437342;1260;108406;-42
2023/05/11 14:15:06;;;;;;;4.10;1.90;;;;;;;20.12;29.36;98685.20;437359;1250;99203;-42
2023/05/11 14:25:10;;;;;;;3.60;2.20;;;;;;;20.11;29.84;98682.79;437330;1251;112343;-42
2023/05/11 14:35:14;;;;;;;5.90;2.30;;;;;;;20.37;30.58;98678.61;437255;1247;107743;-46
2023/05/11 14:45:41;;;;;;;7.30;2.70;;;;;;;19.70;30.64;98683.64;438182;1248;99224;-43
2023/05/11 14:55:45;;;;;;;2.50;2.00;;;;;;;19.47;31.58;98681.83;437509;1251;107311;-41
2023/05/11 15:05:52;;;;;;;5.60;2.40;;;;;;;19.82;31.84;98674.28;437469;1247;97963;-45
2023/05/11 15:15:57;;;;;;;3.10;2.10;;;;;;;19.65;32.17;98674.28;437449;1251;111859;-41
2023/05/11 15:26:01;;;;;;;4.20;2.20;;;;;;;19.49;32.47;98673.98;437518;1247;107818;-42
2023/05/11 15:36:05;;;;;;;5.20;2.60;;;;;;;19.61;32.61;98667.83;437402;1247;98636;-44
2023/05/11 15:46:08;;;;;;;5.10;2.60;;;;;;;19.52;32.49;98677.31;436900;1247;546929;-41
2023/05/11 15:56:12;;;;;;;4.60;2.80;;;;;;;19.26;32.62;98681.27;437437;1250;99237;-42
2023/05/11 16:06:16;;;;;;;3.80;2.00;;;;;;;18.91;32.86;98683.91;437309;1247;110923;-42
2023/05/11 16:26:28;;;;;;;8.20;2.50;;;;;;;18.65;33.67;98686.80;437597;1247;99202;-42
2023/05/11 16:36:32;;;;;;;3.90;2.10;;;;;;;18.58;34.07;98685.88;437438;1250;107942;-43
2023/05/11 16:46:36;;;;;;;3.00;2.60;;;;;;;18.42;34.01;98678.30;437368;1247;99250;-44
2023/05/11 16:56:41;;;;;;;4.60;2.60;;;;;;;18.34;34.03;98684.83;437352;1250;112012;-42
2023/05/11 17:06:48;;;;;;;4.90;3.20;;;;;;;18.20;34.48;98684.83;437355;1247;106729;-42
2023/05/11 17:16:52;;;;;;;3.80;2.70;;;;;;;18.06;34.97;98690.52;437293;1250;97985;-45
2023/05/11 17:26:56;;;;;;;8.30;3.30;;;;;;;17.85;35.14;98701.83;437260;1251;109695;-41
2023/05/11 17:37:00;;;;;;;6.60;3.70;;;;;;;17.64;35.57;98705.69;437328;1248;98274;-42
2023/05/11 17:47:03;;;;;;;7.60;3.80;;;;;;;17.38;35.98;98712.92;437166;1247;112799;-41
2023/05/11 17:57:09;;;;;;;6.50;3.50;;;;;;;17.08;36.54;98719.08;437252;1250;107277;-42
2023/05/11 18:07:14;;;;;;;5.30;3.90;;;;;;;16.76;37.02;98726.27;437195;1250;97981;-43
2023/05/11 18:27:21;;;;;;;5.50;4.60;;;;;;;16.14;37.93;98748.94;437312;1247;99820;-42
2023/05/11 18:37:24;;;;;;;10.60;5.30;;;;;;;15.84;38.46;98759.23;437202;1251;112337;-42
2023/05/11 18:47:28;;;;;;;9.80;6.40;;;;;;;15.58;38.72;98760.86;437142;1248;107468;-43
2023/05/11 19:07:37;;;;;;;6.40;4.60;;;;;;;15.14;39.47;98781.35;437197;1250;106754;-43
2023/05/11 19:17:41;;;;;;;8.60;4.50;;;;;;;14.95;39.89;98791.64;437282;1250;98470;-43
2023/05/11 19:27:45;;;;;;;6.80;4.90;;;;;;;14.73;40.22;98801.67;437180;1247;112070;-42
2023/05/11 19:37:49;;;;;;;8.50;4.70;;;;;;;14.49;40.62;98809.51;437521;1248;107873;-40
2023/05/11 19:47:53;;;;;;;9.90;4.80;;;;;;;14.23;41.04;98810.63;437403;1247;98826;-41
2023/05/11 19:57:57;;;;;;;8.70;5.10;;;;;;;14.03;41.51;98815.52;437320;1250;108631;-43
2023/05/11 20:08:01;;;;;;;8.20;5.60;;;;;;;13.89;41.80;98818.52;437202;1250;99218;-45
2023/05/11 20:18:06;;;;;;;8.30;5.30;;;;;;;13.72;42.12;98820.63;437363;1250;112562;-42
2023/05/11 20:28:10;;;;;;;8.00;4.60;;;;;;;13.57;42.44;98823.98;437327;1250;108957;-41
2023/05/11 20:38:15;;;;;;;6.50;5.30;;;;;;;13.38;42.72;98822.80;437366;1247;97983;-42
2023/05/11 20:48:19;;;;;;;8.30;5.50;;;;;;;13.22;43.10;98828.38;437330;1250;108000;-42
2023/05/11 20:58:39;;;;;;;9.30;5.40;;;;;;;12.95;43.41;98829.53;437226;1246;98081;-43
2023/05/11 21:08:43;;;;;;;10.80;5.70;;;;;;;12.71;43.81;98827.84;437193;1250;112034;-44
2023/05/11 21:18:47;;;;;;;11.20;6.20;;;;;;;12.50;44.30;98832.17;437357;1250;107434;-42
2023/05/11 21:28:50;;;;;;;11.90;7.20;;;;;;;12.28;44.70;98839.85;437306;1250;99237;-42
2023/05/11 21:38:54;;;;;;;12.80;6.20;;;;;;;12.09;45.12;98848.52;437328;1250;107329;-42
2023/05/11 21:48:57;;;;;;;9.20;5.70;;;;;;;11.92;45.50;98851.26;437354;1250;99260;-41
2023/05/11 21:59:01;;;;;;;11.50;6.10;;;;;;;11.76;45.90;98852.59;437479;1248;111931;-42
2023/05/11 22:09:05;;;;;;;11.90;6.40;;;;;;;11.58;46.17;98853.50;437069;1250;108405;-42
2023/05/11 22:19:09;;;;;;;13.40;6.70;;;;;;;11.45;46.60;98856.55;437294;1247;101505;-42
2023/05/11 22:29:13;;;;;;;15.50;7.00;;;;;;;11.28;46.92;98861.05;437355;1250;108450;-41
2023/05/11 22:39:18;;;;;;;15.30;7.20;;;;;;;11.16;47.28;98862.89;437166;1250;99297;-42
2023/05/11 22:49:46;;;;;;;10.80;6.40;;;;;;;10.95;47.62;98866.92;437137;1247;113266;-41
2023/05/11 22:59:53;;;;;;;13.30;7.60;;;;;;;10.83;48.14;98861.04;437352;1248;107121;-41
2023/05/11 23:09:59;;;;;;;12.90;6.80;;;;;;;10.75;48.38;98856.08;437247;1247;98261;-44
2023/05/11 23:30:08;;;;;;;16.20;7.20;;;;;;;10.49;49.08;98853.59;437313;1250;99388;-42
2023/05/11 23:40:12;;;;;;;12.80;8.00;;;;;;;10.39;49.40;98852.75;437456;1250;111247;-42
2023/05/11 23:50:15;;;;;;;14.70;6.90;;;;;;;10.27;49.80;98854.79;437524;1250;106662;-41
